createdAt,value
2023-01-08T00:02:28.873Z,93189.06
2023-01-08T00:04:58.926Z,93189.97
2023-01-08T00:07:30.289Z,93186.47
2023-01-08T00:09:59.993Z,93183.97
2023-01-08T00:12:29.765Z,93184.91
2023-01-08T00:14:59.708Z,93193.56
2023-01-08T00:17:29.705Z,93186.91
2023-01-08T00:19:59.529Z,93185.13
2023-01-08T00:22:30.848Z,93189.41
2023-01-08T00:25:00.851Z,93183.97
2023-01-08T00:27:30.619Z,93181.25
2023-01-08T00:30:00.786Z,93189.81
2023-01-08T00:32:30.735Z,93182.19
2023-01-08T00:35:01.914Z,93179.69
2023-01-08T00:37:33.297Z,93186.69
2023-01-08T00:40:03.208Z,93184.97
2023-01-08T00:42:33.007Z,93172.22
2023-01-08T00:45:02.759Z,93174.91
2023-01-08T00:50:45.400Z,93181.91
2023-01-08T00:53:15.503Z,93170.78
2023-01-08T00:55:45.498Z,93176.69
2023-01-08T00:58:15.825Z,93176.69
2023-01-08T01:00:45.592Z,93176.72
2023-01-08T01:03:15.582Z,93187.81
2023-01-08T01:05:46.828Z,93188.59
2023-01-08T01:08:16.797Z,93179.34
2023-01-08T01:10:46.568Z,93186.19
2023-01-08T01:13:16.462Z,93177.75
2023-01-08T01:15:46.359Z,93170.06
2023-01-08T01:18:16.128Z,93172.66
2023-01-08T01:20:47.355Z,93167.72
2023-01-08T01:23:17.323Z,93172.84
2023-01-08T01:25:47.289Z,93171.13
2023-01-08T01:28:17.104Z,93165.22
2023-01-08T01:30:46.860Z,93160.13
2023-01-08T01:33:16.741Z,93158.38
2023-01-08T01:35:48.109Z,93158.31
2023-01-08T01:38:18.005Z,93150.59
2023-01-08T01:40:47.736Z,93150.41
2023-01-08T01:43:17.517Z,93147.97
2023-01-08T01:45:47.479Z,93138.69
2023-01-08T01:48:18.838Z,93141.25
2023-01-08T01:50:54.529Z,93141.34
2023-01-08T01:53:28.219Z,93144.91
2023-01-08T01:56:00.165Z,93149.13
2023-01-08T01:58:32.844Z,93147.41
2023-01-08T02:01:07.692Z,93158.38
2023-01-08T02:03:41.275Z,93152.47
2023-01-08T02:06:25.401Z,93143.25
2023-01-08T02:09:03.395Z,93141.63
2023-01-08T02:11:47.065Z,93144.22
2023-01-08T02:14:24.710Z,93142.63
2023-01-08T02:17:01.831Z,93133.16
2023-01-08T02:19:44.964Z,93149.41
2023-01-08T02:22:25.211Z,93136.66
2023-01-08T02:25:02.151Z,93139.13
2023-01-08T02:27:36.513Z,93134.00
2023-01-08T02:30:08.758Z,93128.94
2023-01-08T02:32:42.702Z,93135.78
2023-01-08T02:35:13.950Z,93133.25
2023-01-08T02:37:44.761Z,93137.50
2023-01-08T02:40:26.701Z,93137.59
2023-01-08T02:43:03.401Z,93130.72
2023-01-08T02:45:45.708Z,93136.56
2023-01-08T02:48:18.999Z,93132.38
2023-01-08T02:50:57.042Z,93129.88
2023-01-08T02:53:30.817Z,93125.50
2023-01-08T02:56:05.898Z,93122.00
2023-01-08T02:58:40.343Z,93120.22
2023-01-08T03:01:13.608Z,93120.16
2023-01-08T03:03:48.568Z,93125.34
2023-01-08T03:06:22.151Z,93127.06
2023-01-08T03:08:55.201Z,93118.56
2023-01-08T03:11:27.239Z,93120.22
2023-01-08T03:14:04.469Z,93115.97
2023-01-08T03:16:38.982Z,93117.59
2023-01-08T03:19:15.529Z,93123.59
2023-01-08T03:21:47.382Z,93119.38
2023-01-08T03:24:22.747Z,93118.78
2023-01-08T03:26:57.299Z,93118.94
2023-01-08T03:29:29.589Z,93122.31
2023-01-08T03:32:04.809Z,93118.94
2023-01-08T03:34:38.209Z,93118.78
2023-01-08T03:37:11.081Z,93121.31
2023-01-08T03:39:44.198Z,93112.75
2023-01-08T03:42:17.797Z,93114.38
2023-01-08T03:44:49.646Z,93114.38
2023-01-08T03:47:22.352Z,93111.19
2023-01-08T03:51:47.148Z,93112.88
2023-01-08T03:54:20.182Z,93108.63
2023-01-08T03:56:50.107Z,93116.31
2023-01-08T03:59:20.449Z,93124.91
2023-01-08T04:01:50.654Z,93125.97
2023-01-08T04:04:20.765Z,93122.66
2023-01-08T04:06:53.799Z,93129.47
2023-01-08T04:09:23.686Z,93128.53
2023-01-08T04:11:53.458Z,93132.59
2023-01-08T04:14:23.329Z,93126.63
2023-01-08T04:16:53.164Z,93135.31
2023-01-08T04:19:23.001Z,93130.16
2023-01-08T04:21:55.335Z,93130.81
2023-01-08T04:24:25.340Z,93129.16
2023-01-08T04:26:55.250Z,93129.25
2023-01-08T04:29:25.224Z,93136.94
2023-01-08T04:31:55.097Z,93130.94
2023-01-08T04:34:24.877Z,93122.53
2023-01-08T04:36:56.857Z,93128.59
2023-01-08T04:39:26.611Z,93134.69
2023-01-08T04:41:56.561Z,93126.19
2023-01-08T04:44:26.419Z,93129.63
2023-01-08T04:46:57.706Z,93127.84
2023-01-08T04:49:27.811Z,93133.75
2023-01-08T04:51:59.179Z,93134.69
2023-01-08T04:54:29.130Z,93132.13
2023-01-08T04:56:59.047Z,93132.22
2023-01-08T04:59:28.928Z,93138.28
2023-01-08T05:01:59.245Z,93132.25
2023-01-08T05:04:29.341Z,93140.75
2023-01-08T05:07:00.649Z,93134.84
2023-01-08T05:09:30.470Z,93136.47
2023-01-08T05:12:00.277Z,93141.56
2023-01-08T05:14:30.182Z,93141.56
2023-01-08T05:17:00.056Z,93143.19
2023-01-08T05:19:29.945Z,93131.34
2023-01-08T05:22:01.160Z,93139.06
2023-01-08T05:24:30.898Z,93150.28
2023-01-08T05:27:00.658Z,93142.69
2023-01-08T05:29:30.507Z,93146.84
2023-01-08T05:32:00.275Z,93144.22
2023-01-08T05:34:30.450Z,93153.72
2023-01-08T05:37:01.825Z,93144.47
2023-01-08T05:39:31.611Z,93148.84
2023-01-08T05:42:01.405Z,93148.03
2023-01-08T05:44:31.227Z,93146.25
2023-01-08T05:47:01.159Z,93143.59
2023-01-08T05:49:31.144Z,93143.56
2023-01-08T05:52:02.530Z,93147.78
2023-01-08T05:54:33.952Z,93142.56
2023-01-08T05:57:03.841Z,93147.78
2023-01-08T05:59:33.588Z,93155.53
2023-01-08T06:02:03.440Z,93150.53
2023-01-08T06:04:33.442Z,93151.41
2023-01-08T06:07:04.803Z,93154.78
2023-01-08T06:09:34.725Z,93155.50
2023-01-08T06:12:04.528Z,93154.44
2023-01-08T06:14:34.602Z,93159.38
2023-01-08T06:17:04.578Z,93155.03
2023-01-08T06:19:34.506Z,93156.88
2023-01-08T06:22:05.824Z,93167.03
2023-01-08T06:24:35.682Z,93161.97
2023-01-08T06:27:05.624Z,93167.09
2023-01-08T06:29:35.359Z,93162.69
2023-01-08T06:32:05.383Z,93168.41
2023-01-08T06:34:35.321Z,93169.03
2023-01-08T06:37:06.562Z,93165.38
2023-01-08T06:39:36.327Z,93169.38
2023-01-08T06:42:06.343Z,93164.06
2023-01-08T06:44:36.318Z,93171.50
2023-01-08T06:47:06.264Z,93172.91
2023-01-08T06:51:45.390Z,93170.69
2023-01-08T06:54:15.164Z,93176.31
2023-01-08T06:56:53.224Z,93172.56
2023-01-08T06:59:23.889Z,93173.91
2023-01-08T07:01:53.809Z,93172.81
2023-01-08T07:04:23.918Z,93175.91
2023-01-08T07:06:55.286Z,93172.94
2023-01-08T07:09:25.347Z,93176.78
2023-01-08T07:11:55.228Z,93186.53
2023-01-08T07:14:25.143Z,93183.53
2023-01-08T07:16:55.169Z,93189.09
2023-01-08T07:19:25.160Z,93192.94
2023-01-08T07:21:56.627Z,93192.50
2023-01-08T07:24:26.506Z,93189.56
2023-01-08T07:26:56.421Z,93194.16
2023-01-08T07:29:26.320Z,93191.97
2023-01-08T07:31:56.079Z,93193.09
2023-01-08T07:34:25.807Z,93195.03
2023-01-08T07:36:57.081Z,93193.56
2023-01-08T07:39:26.839Z,93187.78
2023-01-08T07:41:56.682Z,93191.38
2023-01-08T07:44:26.546Z,93188.97
2023-01-08T07:46:56.842Z,93189.09
2023-01-08T07:49:26.696Z,93186.44
2023-01-08T07:51:58.096Z,93189.78
2023-01-08T07:54:28.019Z,93185.41
2023-01-08T07:56:58.032Z,93186.84
2023-01-08T07:59:27.866Z,93182.94
2023-01-08T08:01:57.895Z,93181.03
2023-01-08T08:04:27.909Z,93180.94
2023-01-08T08:06:59.557Z,93191.66
2023-01-08T08:09:29.427Z,93186.91
2023-01-08T08:11:59.391Z,93192.59
2023-01-08T08:14:29.145Z,93189.63
2023-01-08T08:16:59.066Z,93185.44
2023-01-08T08:19:28.802Z,93184.91
2023-01-08T08:22:00.337Z,93182.66
2023-01-08T08:24:30.177Z,93192.44
2023-01-08T08:27:00.006Z,93187.44
2023-01-08T08:29:29.857Z,93187.94
2023-01-08T08:31:59.745Z,93192.63
2023-01-08T08:34:29.647Z,93186.50
2023-01-08T08:37:01.150Z,93188.44
2023-01-08T08:39:30.857Z,93192.13
2023-01-08T08:42:00.777Z,93189.94
2023-01-08T08:44:30.523Z,93178.06
2023-01-08T08:47:00.497Z,93182.91
2023-01-08T08:49:30.319Z,93187.81
2023-01-08T08:52:01.682Z,93186.09
2023-01-08T08:54:31.625Z,93191.53
2023-01-08T08:57:01.368Z,93187.97
2023-01-08T08:59:31.258Z,93187.00
2023-01-08T09:02:01.195Z,93185.19
2023-01-08T09:04:33.897Z,93177.22
2023-01-08T09:07:05.345Z,93176.66
2023-01-08T09:09:35.305Z,93171.72
2023-01-08T09:12:05.257Z,93169.53
2023-01-08T09:14:35.246Z,93167.88
2023-01-08T09:17:05.002Z,93171.31
2023-01-08T09:19:34.989Z,93171.66
2023-01-08T09:22:06.409Z,93165.69
2023-01-08T09:24:36.157Z,93169.31
2023-01-08T09:27:06.056Z,93168.28
2023-01-08T09:29:35.937Z,93169.63
2023-01-08T09:32:08.825Z,93161.59
2023-01-08T09:34:38.900Z,93155.22
2023-01-08T09:37:10.178Z,93154.78
2023-01-08T09:39:42.442Z,93154.38
2023-01-08T09:42:16.146Z,93159.78
2023-01-08T09:44:50.865Z,93147.03
2023-01-08T09:47:28.093Z,93146.59
2023-01-08T09:51:46.042Z,93133.91
2023-01-08T09:54:19.217Z,93135.78
2023-01-08T09:56:49.035Z,93127.63
2023-01-08T09:59:21.176Z,93126.50
2023-01-08T10:01:51.577Z,93125.50
2023-01-08T10:04:24.777Z,93120.84
2023-01-08T10:07:02.452Z,93126.16
2023-01-08T10:09:34.364Z,93120.31
2023-01-08T10:12:08.298Z,93112.50
2023-01-08T10:14:40.478Z,93112.50
2023-01-08T10:17:25.764Z,93102.94
2023-01-08T10:19:57.120Z,93102.94
2023-01-08T10:22:34.048Z,93104.06
2023-01-08T10:25:11.375Z,93096.19
2023-01-08T10:27:50.528Z,93087.72
2023-01-08T10:30:23.268Z,93094.09
2023-01-08T10:32:55.547Z,93092.38
2023-01-08T10:35:35.534Z,93088.91
2023-01-08T10:38:07.122Z,93091.44
2023-01-08T10:40:42.542Z,93080.75
2023-01-08T10:43:19.723Z,93083.91
2023-01-08T10:46:01.120Z,93086.13
2023-01-08T10:48:37.022Z,93075.66
2023-01-08T10:51:13.807Z,93076.66
2023-01-08T10:53:45.735Z,93078.72
2023-01-08T10:56:24.540Z,93073.69
2023-01-08T10:58:55.411Z,93075.28
2023-01-08T11:01:29.050Z,93070.72
2023-01-08T11:04:01.455Z,93073.88
2023-01-08T11:06:34.400Z,93060.13
2023-01-08T11:09:06.827Z,93064.50
2023-01-08T11:11:38.684Z,93061.34
2023-01-08T11:14:24.161Z,93063.94
2023-01-08T11:16:54.291Z,93063.94
2023-01-08T11:19:28.731Z,93064.88
2023-01-08T11:22:01.731Z,93066.38
2023-01-08T11:24:36.559Z,93055.88
2023-01-08T11:27:11.895Z,93062.53
2023-01-08T11:29:46.385Z,93057.53
2023-01-08T11:32:40.411Z,93063.84
2023-01-08T11:35:19.924Z,93058.63
2023-01-08T11:37:55.690Z,93061.06
2023-01-08T11:40:39.547Z,93054.38
2023-01-08T11:43:27.576Z,93043.53
2023-01-08T11:46:19.228Z,93041.22
2023-01-08T11:49:23.660Z,93034.34
2023-01-08T11:52:11.101Z,93029.25
2023-01-08T11:55:05.024Z,93035.28
2023-01-08T11:57:50.358Z,93032.78
2023-01-08T12:00:54.425Z,93026.81
2023-01-08T12:03:35.850Z,93028.81
2023-01-08T12:06:29.449Z,93028.03
2023-01-08T12:09:17.699Z,93033.25
2023-01-08T12:11:58.192Z,93028.88
2023-01-08T12:14:54.767Z,93030.53
2023-01-08T12:17:54.248Z,93019.41
2023-01-08T12:20:39.673Z,93022.19
2023-01-08T12:23:26.726Z,93027.38
2023-01-08T12:26:18.947Z,93023.13
2023-01-08T12:29:21.059Z,93027.38
2023-01-08T12:32:26.304Z,93028.44
2023-01-08T12:35:07.266Z,93022.47
2023-01-08T12:37:44.018Z,93017.28
2023-01-08T12:40:22.521Z,93022.56
2023-01-08T12:43:00.822Z,93022.66
2023-01-08T12:45:34.628Z,93020.25
2023-01-08T12:52:01.463Z,93027.50
2023-01-08T12:54:39.818Z,93026.75
2023-01-08T12:57:16.401Z,93026.00
2023-01-08T12:59:52.303Z,93022.75
2023-01-08T13:02:39.197Z,93028.22
2023-01-08T13:05:32.705Z,93031.19
2023-01-08T13:08:07.878Z,93040.06
2023-01-08T13:10:41.233Z,93035.09
2023-01-08T13:13:29.871Z,93037.19
2023-01-08T13:16:22.542Z,93027.22
2023-01-08T13:18:58.397Z,93027.41
2023-01-08T13:21:52.584Z,93031.13
2023-01-08T13:24:34.646Z,93029.06
2023-01-08T13:27:30.149Z,93039.13
2023-01-08T13:30:00.215Z,93037.63
2023-01-08T13:32:47.634Z,93035.56
2023-01-08T13:35:29.780Z,93041.28
2023-01-08T13:38:16.522Z,93042.47
2023-01-08T13:40:58.045Z,93041.63
2023-01-08T13:43:33.379Z,93036.34
2023-01-08T13:46:18.384Z,93044.22
2023-01-08T13:48:58.606Z,93035.94
2023-01-08T13:51:42.325Z,93040.66
2023-01-08T13:54:23.852Z,93034.03
2023-01-08T13:57:06.677Z,93034.13
2023-01-08T13:59:45.532Z,93035.06
2023-01-08T14:02:44.963Z,93039.41
2023-01-08T14:05:27.580Z,93044.59
2023-01-08T14:07:59.276Z,93041.34
2023-01-08T14:10:31.251Z,93033.03
2023-01-08T14:13:10.526Z,93043.91
2023-01-08T14:15:41.946Z,93044.28
2023-01-08T14:18:16.133Z,93042.00
2023-01-08T14:20:51.724Z,93046.34
2023-01-08T14:23:26.688Z,93036.16
2023-01-08T14:25:57.046Z,93036.91
2023-01-08T14:28:28.379Z,93033.28
2023-01-08T14:30:59.998Z,93040.91
2023-01-08T14:33:35.908Z,93042.41
2023-01-08T14:36:09.617Z,93037.78
2023-01-08T14:38:40.200Z,93040.59
2023-01-08T14:41:14.923Z,93036.41
2023-01-08T14:43:49.680Z,93041.31
2023-01-08T14:46:24.700Z,93039.56
2023-01-08T14:48:56.247Z,93039.47
2023-01-08T14:51:29.933Z,93031.47
2023-01-08T14:54:03.405Z,93042.59
2023-01-08T14:56:36.647Z,93044.00
2023-01-08T14:59:13.876Z,93038.72
2023-01-08T15:01:43.904Z,93042.75
2023-01-08T15:04:19.628Z,93041.25
2023-01-08T15:06:51.584Z,93043.00
2023-01-08T15:09:26.984Z,93038.41
2023-01-08T15:11:58.794Z,93038.13
2023-01-08T15:14:33.703Z,93038.41
2023-01-08T15:17:12.382Z,93039.69
2023-01-08T15:19:49.784Z,93044.41
2023-01-08T15:22:23.399Z,93046.50
2023-01-08T15:25:01.325Z,93047.88
2023-01-08T15:27:34.744Z,93037.97
2023-01-08T15:30:09.542Z,93041.84
2023-01-08T15:32:40.776Z,93044.03
2023-01-08T15:35:19.126Z,93043.72
2023-01-08T15:37:49.262Z,93048.56
2023-01-08T15:40:19.124Z,93045.59
2023-01-08T15:43:06.123Z,93049.31
2023-01-08T15:45:37.765Z,93043.75
2023-01-08T15:48:09.406Z,93041.75
2023-01-08T15:51:48.558Z,93040.56
2023-01-08T15:54:19.037Z,93042.59
2023-01-08T15:56:48.837Z,93046.38
2023-01-08T15:59:18.592Z,93048.88
2023-01-08T16:01:48.384Z,93047.88
2023-01-08T16:04:18.296Z,93045.47
2023-01-08T16:06:50.516Z,93053.91
2023-01-08T16:09:20.361Z,93048.94
2023-01-08T16:11:50.093Z,93045.09
2023-01-08T16:14:19.966Z,93050.56
2023-01-08T16:16:49.758Z,93045.53
2023-01-08T16:19:19.562Z,93055.09
2023-01-08T16:21:50.976Z,93050.69
2023-01-08T16:24:20.923Z,93049.16
2023-01-08T16:26:50.756Z,93050.03
2023-01-08T16:29:20.760Z,93046.88
2023-01-08T16:31:51.452Z,93051.66
2023-01-08T16:34:21.379Z,93040.66
2023-01-08T16:36:52.808Z,93048.47
2023-01-08T16:39:22.728Z,93051.25
2023-01-08T16:41:52.623Z,93051.25
2023-01-08T16:44:26.266Z,93050.31
2023-01-08T16:46:57.641Z,93046.97
2023-01-08T16:49:27.784Z,93047.28
2023-01-08T16:51:59.159Z,93046.75
2023-01-08T16:54:29.025Z,93052.81
2023-01-08T16:56:58.923Z,93052.06
2023-01-08T16:59:28.727Z,93062.31
2023-01-08T17:02:00.091Z,93064.09
2023-01-08T17:04:32.374Z,93060.78
2023-01-08T17:07:03.753Z,93068.72
2023-01-08T17:09:33.556Z,93070.53
2023-01-08T17:12:03.356Z,93073.38
2023-01-08T17:14:33.346Z,93071.00
2023-01-08T17:17:03.253Z,93067.78
2023-01-08T17:19:33.105Z,93074.56
2023-01-08T17:22:04.557Z,93070.22
2023-01-08T17:24:34.336Z,93075.72
2023-01-08T17:27:04.332Z,93065.63
2023-01-08T17:29:34.424Z,93069.31
2023-01-08T17:32:04.358Z,93079.72
2023-01-08T17:34:34.460Z,93083.28
2023-01-08T17:37:09.185Z,93075.72
2023-01-08T17:39:38.957Z,93081.03
2023-01-08T17:42:27.925Z,93089.69
2023-01-08T17:45:01.484Z,93089.69
2023-01-08T17:47:33.347Z,93078.47
2023-01-08T17:50:06.040Z,93081.09
2023-01-08T17:52:39.294Z,93083.06
2023-01-08T17:55:10.152Z,93084.28
2023-01-08T17:57:40.936Z,93093.06
2023-01-08T18:00:12.745Z,93088.94
2023-01-08T18:02:42.548Z,93088.03
2023-01-08T18:05:12.868Z,93086.31
2023-01-08T18:07:44.226Z,93088.22
2023-01-08T18:10:14.969Z,93095.19
2023-01-08T18:12:44.851Z,93087.41
2023-01-08T18:15:16.745Z,93093.44
2023-01-08T18:17:46.854Z,93094.22
2023-01-08T18:20:17.533Z,93096.78
2023-01-08T18:22:48.808Z,93096.78
2023-01-08T18:25:18.812Z,93097.06
2023-01-08T18:27:48.864Z,93092.00
2023-01-08T18:30:19.305Z,93100.72
2023-01-08T18:32:49.126Z,93098.22
2023-01-08T18:35:19.700Z,93098.31
2023-01-08T18:37:51.021Z,93100.78
2023-01-08T18:40:21.177Z,93101.78
2023-01-08T18:42:51.029Z,93106.09
2023-01-08T18:45:21.053Z,93099.34
2023-01-08T18:47:50.874Z,93101.06
2023-01-08T18:51:45.632Z,93105.44
2023-01-08T18:54:15.945Z,93110.69
2023-01-08T18:56:46.811Z,93093.66
2023-01-08T18:59:16.721Z,93106.56
2023-01-08T19:01:46.623Z,93097.19
2023-01-08T19:04:19.779Z,93104.06
2023-01-08T19:06:51.036Z,93110.97
2023-01-08T19:09:20.937Z,93106.88
2023-01-08T19:11:50.637Z,93106.16
2023-01-08T19:14:20.446Z,93102.78
2023-01-08T19:16:51.819Z,93101.94
2023-01-08T19:19:22.441Z,93108.69
2023-01-08T19:21:53.849Z,93112.91
2023-01-08T19:24:23.652Z,93112.91
2023-01-08T19:26:53.664Z,93116.28
2023-01-08T19:29:23.566Z,93108.56
2023-01-08T19:31:56.502Z,93104.50
2023-01-08T19:34:26.319Z,93108.03
2023-01-08T19:36:57.844Z,93112.47
2023-01-08T19:39:30.056Z,93111.69
2023-01-08T19:42:17.755Z,93103.94
2023-01-08T19:44:47.602Z,93107.47
2023-01-08T19:47:17.640Z,93107.59
2023-01-08T19:49:49.189Z,93106.03
2023-01-08T19:52:21.253Z,93111.16
2023-01-08T19:54:51.526Z,93108.63
2023-01-08T19:57:21.419Z,93108.63
2023-01-08T19:59:51.862Z,93104.41
2023-01-08T20:02:22.303Z,93102.66
2023-01-08T20:04:53.802Z,93097.47
2023-01-08T20:07:25.152Z,93102.59
2023-01-08T20:09:55.079Z,93099.19
2023-01-08T20:12:24.857Z,93100.09
2023-01-08T20:14:55.146Z,93096.75
2023-01-08T20:17:25.639Z,93096.84
2023-01-08T20:19:55.547Z,93101.06
2023-01-08T20:22:28.095Z,93101.03
2023-01-08T20:24:58.673Z,93101.13
2023-01-08T20:27:28.564Z,93087.56
2023-01-08T20:29:59.165Z,93093.69
2023-01-08T20:32:29.035Z,93092.91
2023-01-08T20:34:59.146Z,93101.56
2023-01-08T20:37:30.924Z,93100.88
2023-01-08T20:40:00.917Z,93102.63
2023-01-08T20:42:33.937Z,93104.41
2023-01-08T20:45:04.582Z,93108.66
2023-01-08T20:47:36.832Z,93101.09
2023-01-08T20:50:19.180Z,93102.81
2023-01-08T20:52:51.822Z,93102.94
2023-01-08T20:55:22.346Z,93098.66
2023-01-08T20:57:52.303Z,93097.00
2023-01-08T21:00:25.154Z,93096.81
2023-01-08T21:02:54.596Z,93102.81
2023-01-08T21:05:24.676Z,93097.75
2023-01-08T21:07:56.087Z,93097.00
2023-01-08T21:10:25.944Z,93097.63
2023-01-08T21:12:56.004Z,93094.44
2023-01-08T21:15:25.976Z,93099.47
2023-01-08T21:17:56.044Z,93096.03
2023-01-08T21:20:25.990Z,93086.69
2023-01-08T21:22:58.139Z,93090.19
2023-01-08T21:25:27.981Z,93085.97
2023-01-08T21:27:57.805Z,93088.53
2023-01-08T21:30:27.785Z,93081.69
2023-01-08T21:32:57.799Z,93090.25
2023-01-08T21:35:27.559Z,93084.41
2023-01-08T21:37:58.926Z,93087.66
2023-01-08T21:40:28.897Z,93091.81
2023-01-08T21:43:15.392Z,93084.13
2023-01-08T21:45:45.334Z,93088.53
2023-01-08T21:52:02.284Z,93084.53
2023-01-08T21:54:32.115Z,93090.50
2023-01-08T21:57:02.040Z,93090.59
2023-01-08T21:59:31.925Z,93085.44
2023-01-08T22:02:02.070Z,93082.88
2023-01-08T22:04:32.124Z,93085.53
2023-01-08T22:07:03.588Z,93079.50
2023-01-08T22:09:33.487Z,93073.47
2023-01-08T22:12:03.584Z,93072.63
2023-01-08T22:14:33.480Z,93078.66
2023-01-08T22:17:04.381Z,93075.25
2023-01-08T22:19:34.225Z,93079.56
2023-01-08T22:22:05.552Z,93082.88
2023-01-08T22:24:35.419Z,93081.25
2023-01-08T22:27:05.257Z,93079.66
2023-01-08T22:29:35.300Z,93078.94
2023-01-08T22:32:05.490Z,93084.91
2023-01-08T22:34:36.624Z,93080.72
2023-01-08T22:37:07.913Z,93075.66
2023-01-08T22:39:37.696Z,93078.19
2023-01-08T22:42:07.748Z,93076.38
2023-01-08T22:44:37.982Z,93078.13
2023-01-08T22:47:10.349Z,93073.06
2023-01-08T22:49:40.599Z,93079.94
2023-01-08T22:52:11.959Z,93077.44
2023-01-08T22:54:41.930Z,93073.28
2023-01-08T22:57:11.897Z,93070.72
2023-01-08T22:59:41.767Z,93067.22
2023-01-08T23:02:11.539Z,93066.44
2023-01-08T23:04:41.343Z,93065.59
2023-01-08T23:07:12.578Z,93061.38
2023-01-08T23:09:42.365Z,93056.44
2023-01-08T23:12:12.304Z,93056.38
2023-01-08T23:14:42.905Z,93062.41
2023-01-08T23:17:13.367Z,93059.66
2023-01-08T23:19:43.604Z,93054.53
2023-01-08T23:22:14.999Z,93053.81
2023-01-08T23:24:45.438Z,93055.59
2023-01-08T23:27:15.368Z,93051.44
2023-01-08T23:29:45.206Z,93050.53
2023-01-08T23:32:15.185Z,93053.97
2023-01-08T23:34:45.309Z,93047.16
2023-01-08T23:37:16.874Z,93054.00
2023-01-08T23:39:46.807Z,93047.16
2023-01-08T23:42:17.417Z,93039.59
2023-01-08T23:44:47.264Z,93044.59
2023-01-08T23:47:17.197Z,93047.16
2023-01-08T23:49:47.184Z,93051.50
2023-01-08T23:52:18.384Z,93042.28
2023-01-08T23:54:48.359Z,93040.53
2023-01-08T23:57:18.164Z,93045.59
2023-01-08T23:59:48.227Z,93050.75
